sensor_id;sensor_type;location;lat;lon;timestamp;temperature;humidity
12604;DHT22;6367;52.508;13.284;2024-02-26T00:02:23;10.50;97.10
12604;DHT22;6367;52.508;13.284;2024-02-26T00:04:49;10.40;97.20
12604;DHT22;6367;52.508;13.284;2024-02-26T00:07:16;10.40;97.30
12604;DHT22;6367;52.508;13.284;2024-02-26T00:09:41;10.50;97.30
12604;DHT22;6367;52.508;13.284;2024-02-26T00:12:07;10.50;97.40
12604;DHT22;6367;52.508;13.284;2024-02-26T00:14:36;10.40;97.30
12604;DHT22;6367;52.508;13.284;2024-02-26T00:17:02;10.30;97.60
12604;DHT22;6367;52.508;13.284;2024-02-26T00:19:28;10.10;97.90
12604;DHT22;6367;52.508;13.284;2024-02-26T00:21:53;10.40;97.70
12604;DHT22;6367;52.508;13.284;2024-02-26T00:24:23;10.40;97.70
12604;DHT22;6367;52.508;13.284;2024-02-26T00:26:49;10.40;97.70
12604;DHT22;6367;52.508;13.284;2024-02-26T00:29:21;10.30;97.70
12604;DHT22;6367;52.508;13.284;2024-02-26T00:31:47;10.30;97.90
12604;DHT22;6367;52.508;13.284;2024-02-26T00:34:13;11.00;98.50
12604;DHT22;6367;52.508;13.284;2024-02-26T00:36:38;10.30;97.90
12604;DHT22;6367;52.508;13.284;2024-02-26T00:39:04;10.20;98.00
12604;DHT22;6367;52.508;13.284;2024-02-26T00:41:30;10.20;98.00
12604;DHT22;6367;52.508;13.284;2024-02-26T00:43:55;10.10;98.10
12604;DHT22;6367;52.508;13.284;2024-02-26T00:46:21;10.10;98.10
12604;DHT22;6367;52.508;13.284;2024-02-26T00:48:46;10.10;98.10
12604;DHT22;6367;52.508;13.284;2024-02-26T00:51:12;10.20;98.00
12604;DHT22;6367;52.508;13.284;2024-02-26T00:53:38;10.30;97.80
12604;DHT22;6367;52.508;13.284;2024-02-26T00:56:03;10.10;97.90
12604;DHT22;6367;52.508;13.284;2024-02-26T00:58:29;10.00;98.20
12604;DHT22;6367;52.508;13.284;2024-02-26T01:00:55;10.00;98.40
12604;DHT22;6367;52.508;13.284;2024-02-26T01:03:20;10.00;98.50
12604;DHT22;6367;52.508;13.284;2024-02-26T01:05:46;9.90;99.20
12604;DHT22;6367;52.508;13.284;2024-02-26T01:08:12;9.80;99.30
12604;DHT22;6367;52.508;13.284;2024-02-26T01:10:37;9.70;99.50
12604;DHT22;6367;52.508;13.284;2024-02-26T01:13:03;9.80;99.70
12604;DHT22;6367;52.508;13.284;2024-02-26T01:15:29;9.70;99.70
12604;DHT22;6367;52.508;13.284;2024-02-26T01:17:54;9.70;99.70
12604;DHT22;6367;52.508;13.284;2024-02-26T01:20:20;9.60;99.80
12604;DHT22;6367;52.508;13.284;2024-02-26T01:22:46;9.70;99.90
12604;DHT22;6367;52.508;13.284;2024-02-26T01:25:12;9.80;99.90
12604;DHT22;6367;52.508;13.284;2024-02-26T01:27:38;9.80;99.80
12604;DHT22;6367;52.508;13.284;2024-02-26T01:30:05;9.70;99.90
12604;DHT22;6367;52.508;13.284;2024-02-26T01:32:31;9.70;99.90
12604;DHT22;6367;52.508;13.284;2024-02-26T01:34:57;10.20;99.70
12604;DHT22;6367;52.508;13.284;2024-02-26T01:37:23;9.70;99.90
12604;DHT22;6367;52.508;13.284;2024-02-26T01:39:49;9.80;99.90
12604;DHT22;6367;52.508;13.284;2024-02-26T01:42:14;9.90;99.90
12604;DHT22;6367;52.508;13.284;2024-02-26T01:44:40;9.90;99.90
12604;DHT22;6367;52.508;13.284;2024-02-26T01:47:07;9.90;99.90
12604;DHT22;6367;52.508;13.284;2024-02-26T01:49:36;9.80;99.90
12604;DHT22;6367;52.508;13.284;2024-02-26T01:52:03;9.80;99.90
12604;DHT22;6367;52.508;13.284;2024-02-26T01:54:30;9.90;99.90
12604;DHT22;6367;52.508;13.284;2024-02-26T01:56:56;9.90;99.90
12604;DHT22;6367;52.508;13.284;2024-02-26T01:59:23;10.00;99.40
12604;DHT22;6367;52.508;13.284;2024-02-26T02:01:52;10.00;99.40
12604;DHT22;6367;52.508;13.284;2024-02-26T02:04:20;10.10;99.50
12604;DHT22;6367;52.508;13.284;2024-02-26T02:06:46;10.00;99.20
12604;DHT22;6367;52.508;13.284;2024-02-26T02:09:12;10.00;99.40
12604;DHT22;6367;52.508;13.284;2024-02-26T02:11:38;9.90;99.90
12604;DHT22;6367;52.508;13.284;2024-02-26T02:14:03;9.80;99.90
12604;DHT22;6367;52.508;13.284;2024-02-26T02:16:29;9.70;99.90
12604;DHT22;6367;52.508;13.284;2024-02-26T02:18:55;9.70;99.90
12604;DHT22;6367;52.508;13.284;2024-02-26T02:21:20;9.60;99.90
12604;DHT22;6367;52.508;13.284;2024-02-26T02:23:46;9.70;99.90
12604;DHT22;6367;52.508;13.284;2024-02-26T02:26:14;9.80;99.90
12604;DHT22;6367;52.508;13.284;2024-02-26T02:28:40;9.70;99.90
12604;DHT22;6367;52.508;13.284;2024-02-26T02:31:07;9.70;99.90
12604;DHT22;6367;52.508;13.284;2024-02-26T02:33:33;9.70;99.90
12604;DHT22;6367;52.508;13.284;2024-02-26T02:35:59;9.70;99.90
12604;DHT22;6367;52.508;13.284;2024-02-26T02:38:25;9.70;99.90
12604;DHT22;6367;52.508;13.284;2024-02-26T02:40:54;9.70;99.90
12604;DHT22;6367;52.508;13.284;2024-02-26T02:43:20;9.70;99.90
12604;DHT22;6367;52.508;13.284;2024-02-26T02:45:45;9.80;99.90
12604;DHT22;6367;52.508;13.284;2024-02-26T02:48:11;9.80;99.90
12604;DHT22;6367;52.508;13.284;2024-02-26T02:50:37;9.80;99.90
12604;DHT22;6367;52.508;13.284;2024-02-26T02:53:03;9.90;99.90
12604;DHT22;6367;52.508;13.284;2024-02-26T02:55:29;9.90;99.90
12604;DHT22;6367;52.508;13.284;2024-02-26T02:57:54;10.00;99.90
12604;DHT22;6367;52.508;13.284;2024-02-26T03:00:20;9.90;99.90
12604;DHT22;6367;52.508;13.284;2024-02-26T03:02:48;9.70;99.90
12604;DHT22;6367;52.508;13.284;2024-02-26T03:05:14;9.70;99.90
12604;DHT22;6367;52.508;13.284;2024-02-26T03:07:40;9.70;99.90
12604;DHT22;6367;52.508;13.284;2024-02-26T03:10:06;9.60;99.90
12604;DHT22;6367;52.508;13.284;2024-02-26T03:12:33;9.60;99.90
12604;DHT22;6367;52.508;13.284;2024-02-26T03:14:59;9.60;99.90
12604;DHT22;6367;52.508;13.284;2024-02-26T03:17:30;9.40;99.90
12604;DHT22;6367;52.508;13.284;2024-02-26T03:19:56;9.30;99.90
12604;DHT22;6367;52.508;13.284;2024-02-26T03:22:22;9.30;99.90
12604;DHT22;6367;52.508;13.284;2024-02-26T03:24:48;9.20;99.90
12604;DHT22;6367;52.508;13.284;2024-02-26T03:27:14;9.20;99.90
12604;DHT22;6367;52.508;13.284;2024-02-26T03:29:40;9.20;99.90
12604;DHT22;6367;52.508;13.284;2024-02-26T03:32:06;9.00;99.90
12604;DHT22;6367;52.508;13.284;2024-02-26T03:34:33;8.90;99.90
12604;DHT22;6367;52.508;13.284;2024-02-26T03:37:04;8.90;99.90
12604;DHT22;6367;52.508;13.284;2024-02-26T03:39:30;8.80;99.90
12604;DHT22;6367;52.508;13.284;2024-02-26T03:41:55;8.90;99.90
12604;DHT22;6367;52.508;13.284;2024-02-26T03:44:21;9.00;99.90
12604;DHT22;6367;52.508;13.284;2024-02-26T03:46:47;9.00;99.90
12604;DHT22;6367;52.508;13.284;2024-02-26T03:49:12;9.00;99.90
12604;DHT22;6367;52.508;13.284;2024-02-26T03:51:38;9.00;99.90
12604;DHT22;6367;52.508;13.284;2024-02-26T03:54:04;9.10;99.90
12604;DHT22;6367;52.508;13.284;2024-02-26T03:56:30;9.10;99.90
12604;DHT22;6367;52.508;13.284;2024-02-26T03:58:55;9.10;99.90
12604;DHT22;6367;52.508;13.284;2024-02-26T04:01:21;9.20;99.90
12604;DHT22;6367;52.508;13.284;2024-02-26T04:03:47;9.10;99.90
12604;DHT22;6367;52.508;13.284;2024-02-26T04:06:13;9.90;99.90
12604;DHT22;6367;52.508;13.284;2024-02-26T04:08:40;9.10;99.90
12604;DHT22;6367;52.508;13.284;2024-02-26T04:11:06;9.30;99.90
12604;DHT22;6367;52.508;13.284;2024-02-26T04:13:33;9.30;99.90
12604;DHT22;6367;52.508;13.284;2024-02-26T04:16:00;9.20;99.90
12604;DHT22;6367;52.508;13.284;2024-02-26T04:18:27;9.20;99.90
12604;DHT22;6367;52.508;13.284;2024-02-26T04:20:53;10.20;99.90
12604;DHT22;6367;52.508;13.284;2024-02-26T04:23:18;9.40;99.90
12604;DHT22;6367;52.508;13.284;2024-02-26T04:25:44;9.50;99.90
12604;DHT22;6367;52.508;13.284;2024-02-26T04:28:10;9.50;99.90
12604;DHT22;6367;52.508;13.284;2024-02-26T04:30:36;9.40;99.90
12604;DHT22;6367;52.508;13.284;2024-02-26T04:33:02;9.40;99.90
12604;DHT22;6367;52.508;13.284;2024-02-26T04:35:27;9.40;99.90
12604;DHT22;6367;52.508;13.284;2024-02-26T04:37:53;9.40;99.90
12604;DHT22;6367;52.508;13.284;2024-02-26T04:40:19;9.40;99.90
12604;DHT22;6367;52.508;13.284;2024-02-26T04:42:45;9.40;99.90
12604;DHT22;6367;52.508;13.284;2024-02-26T04:45:10;9.40;99.90
12604;DHT22;6367;52.508;13.284;2024-02-26T04:47:36;9.40;99.90
12604;DHT22;6367;52.508;13.284;2024-02-26T04:50:02;9.20;99.90
12604;DHT22;6367;52.508;13.284;2024-02-26T04:52:27;9.30;99.90
12604;DHT22;6367;52.508;13.284;2024-02-26T04:54:53;9.20;99.90
12604;DHT22;6367;52.508;13.284;2024-02-26T04:57:20;9.20;99.90
12604;DHT22;6367;52.508;13.284;2024-02-26T04:59:46;9.30;99.90
12604;DHT22;6367;52.508;13.284;2024-02-26T05:02:12;9.30;99.90
12604;DHT22;6367;52.508;13.284;2024-02-26T05:04:38;9.40;99.90
12604;DHT22;6367;52.508;13.284;2024-02-26T05:07:04;9.40;99.90
12604;DHT22;6367;52.508;13.284;2024-02-26T05:09:30;9.40;99.90
12604;DHT22;6367;52.508;13.284;2024-02-26T05:11:55;9.50;99.90
12604;DHT22;6367;52.508;13.284;2024-02-26T05:14:21;9.80;99.90
12604;DHT22;6367;52.508;13.284;2024-02-26T05:16:47;9.50;99.90
12604;DHT22;6367;52.508;13.284;2024-02-26T05:19:13;9.50;99.90
12604;DHT22;6367;52.508;13.284;2024-02-26T05:21:39;9.50;99.90
12604;DHT22;6367;52.508;13.284;2024-02-26T05:24:06;9.40;99.90
12604;DHT22;6367;52.508;13.284;2024-02-26T05:26:31;9.40;99.90
12604;DHT22;6367;52.508;13.284;2024-02-26T05:28:57;9.50;99.90
12604;DHT22;6367;52.508;13.284;2024-02-26T05:31:26;9.50;99.90
12604;DHT22;6367;52.508;13.284;2024-02-26T05:33:51;9.50;99.90
12604;DHT22;6367;52.508;13.284;2024-02-26T05:36:21;9.40;99.90
12604;DHT22;6367;52.508;13.284;2024-02-26T05:38:48;9.40;99.90
12604;DHT22;6367;52.508;13.284;2024-02-26T05:41:16;9.30;99.90
12604;DHT22;6367;52.508;13.284;2024-02-26T05:43:42;9.70;99.90
12604;DHT22;6367;52.508;13.284;2024-02-26T05:46:08;9.30;99.90
12604;DHT22;6367;52.508;13.284;2024-02-26T05:48:33;9.40;99.90
12604;DHT22;6367;52.508;13.284;2024-02-26T05:50:59;9.40;99.90
12604;DHT22;6367;52.508;13.284;2024-02-26T05:53:25;9.40;99.90
12604;DHT22;6367;52.508;13.284;2024-02-26T05:55:51;9.40;99.90
12604;DHT22;6367;52.508;13.284;2024-02-26T05:58:16;9.30;99.90
12604;DHT22;6367;52.508;13.284;2024-02-26T06:00:42;9.40;99.90
12604;DHT22;6367;52.508;13.284;2024-02-26T06:03:07;9.40;99.90
12604;DHT22;6367;52.508;13.284;2024-02-26T06:05:33;9.40;99.90
12604;DHT22;6367;52.508;13.284;2024-02-26T06:07:59;9.30;99.90
12604;DHT22;6367;52.508;13.284;2024-02-26T06:10:24;9.30;99.90
12604;DHT22;6367;52.508;13.284;2024-02-26T06:12:50;9.30;99.90
12604;DHT22;6367;52.508;13.284;2024-02-26T06:15:16;9.30;99.90
12604;DHT22;6367;52.508;13.284;2024-02-26T06:17:41;9.30;99.90
12604;DHT22;6367;52.508;13.284;2024-02-26T06:20:07;9.30;99.90
12604;DHT22;6367;52.508;13.284;2024-02-26T06:22:37;9.30;99.90
12604;DHT22;6367;52.508;13.284;2024-02-26T06:25:03;9.30;99.90
12604;DHT22;6367;52.508;13.284;2024-02-26T06:27:28;9.20;99.90
12604;DHT22;6367;52.508;13.284;2024-02-26T06:29:54;9.20;99.90
12604;DHT22;6367;52.508;13.284;2024-02-26T06:32:20;9.40;99.90
12604;DHT22;6367;52.508;13.284;2024-02-26T06:34:45;9.20;99.90
12604;DHT22;6367;52.508;13.284;2024-02-26T06:37:11;9.30;99.90
12604;DHT22;6367;52.508;13.284;2024-02-26T06:39:36;9.30;99.90
12604;DHT22;6367;52.508;13.284;2024-02-26T06:42:04;9.30;99.90
12604;DHT22;6367;52.508;13.284;2024-02-26T06:44:29;9.40;99.90
12604;DHT22;6367;52.508;13.284;2024-02-26T06:47:01;9.40;99.90
12604;DHT22;6367;52.508;13.284;2024-02-26T06:49:27;9.40;99.90
12604;DHT22;6367;52.508;13.284;2024-02-26T06:51:53;10.10;99.90
12604;DHT22;6367;52.508;13.284;2024-02-26T06:54:19;9.50;99.90
12604;DHT22;6367;52.508;13.284;2024-02-26T06:56:45;9.60;99.90
12604;DHT22;6367;52.508;13.284;2024-02-26T06:59:10;9.60;99.90
12604;DHT22;6367;52.508;13.284;2024-02-26T07:01:36;9.60;99.90
12604;DHT22;6367;52.508;13.284;2024-02-26T07:04:02;9.60;99.90
12604;DHT22;6367;52.508;13.284;2024-02-26T07:06:27;9.70;99.90
12604;DHT22;6367;52.508;13.284;2024-02-26T07:08:53;10.40;99.90
12604;DHT22;6367;52.508;13.284;2024-02-26T07:11:19;9.70;99.90
12604;DHT22;6367;52.508;13.284;2024-02-26T07:13:46;9.70;99.90
12604;DHT22;6367;52.508;13.284;2024-02-26T07:16:11;9.80;99.90
12604;DHT22;6367;52.508;13.284;2024-02-26T07:18:38;9.60;99.90
12604;DHT22;6367;52.508;13.284;2024-02-26T07:21:05;9.50;99.90
12604;DHT22;6367;52.508;13.284;2024-02-26T07:23:31;9.60;99.90
12604;DHT22;6367;52.508;13.284;2024-02-26T07:25:57;9.50;99.90
12604;DHT22;6367;52.508;13.284;2024-02-26T07:28:22;9.50;99.90
12604;DHT22;6367;52.508;13.284;2024-02-26T07:30:48;9.50;99.90
12604;DHT22;6367;52.508;13.284;2024-02-26T07:33:14;9.40;99.90
12604;DHT22;6367;52.508;13.284;2024-02-26T07:35:39;9.60;99.90
12604;DHT22;6367;52.508;13.284;2024-02-26T07:38:05;9.60;99.90
12604;DHT22;6367;52.508;13.284;2024-02-26T07:40:31;9.60;99.90
12604;DHT22;6367;52.508;13.284;2024-02-26T07:42:56;9.70;99.90
12604;DHT22;6367;52.508;13.284;2024-02-26T07:45:22;9.70;99.90
12604;DHT22;6367;52.508;13.284;2024-02-26T07:47:48;9.70;99.90
12604;DHT22;6367;52.508;13.284;2024-02-26T07:50:14;9.50;99.90
12604;DHT22;6367;52.508;13.284;2024-02-26T07:52:39;9.70;99.90
12604;DHT22;6367;52.508;13.284;2024-02-26T07:55:06;9.70;99.90
12604;DHT22;6367;52.508;13.284;2024-02-26T07:57:32;9.70;99.90
12604;DHT22;6367;52.508;13.284;2024-02-26T08:00:02;9.20;99.90
12604;DHT22;6367;52.508;13.284;2024-02-26T08:02:28;9.60;99.90
12604;DHT22;6367;52.508;13.284;2024-02-26T08:04:54;9.50;99.90
12604;DHT22;6367;52.508;13.284;2024-02-26T08:07:20;9.50;99.90
12604;DHT22;6367;52.508;13.284;2024-02-26T08:09:48;9.60;99.90
12604;DHT22;6367;52.508;13.284;2024-02-26T08:12:14;9.80;99.90
12604;DHT22;6367;52.508;13.284;2024-02-26T08:14:40;9.80;99.90
12604;DHT22;6367;52.508;13.284;2024-02-26T08:17:06;9.80;99.90
12604;DHT22;6367;52.508;13.284;2024-02-26T08:19:31;9.70;99.90
12604;DHT22;6367;52.508;13.284;2024-02-26T08:21:57;9.70;99.90
12604;DHT22;6367;52.508;13.284;2024-02-26T08:24:23;9.80;99.90
12604;DHT22;6367;52.508;13.284;2024-02-26T08:26:49;9.90;99.90
12604;DHT22;6367;52.508;13.284;2024-02-26T08:29:14;10.10;99.90
12604;DHT22;6367;52.508;13.284;2024-02-26T08:31:40;10.70;99.90
12604;DHT22;6367;52.508;13.284;2024-02-26T08:34:06;10.40;99.90
12604;DHT22;6367;52.508;13.284;2024-02-26T08:36:33;10.40;99.90
12604;DHT22;6367;52.508;13.284;2024-02-26T08:38:59;10.50;99.90
12604;DHT22;6367;52.508;13.284;2024-02-26T08:41:25;10.70;99.90
12604;DHT22;6367;52.508;13.284;2024-02-26T08:43:50;9.90;99.90
12604;DHT22;6367;52.508;13.284;2024-02-26T08:46:16;11.20;99.90
12604;DHT22;6367;52.508;13.284;2024-02-26T08:48:42;11.20;99.90
12604;DHT22;6367;52.508;13.284;2024-02-26T08:51:08;11.20;99.90
12604;DHT22;6367;52.508;13.284;2024-02-26T08:53:35;11.40;99.90
12604;DHT22;6367;52.508;13.284;2024-02-26T08:56:00;11.50;99.90
12604;DHT22;6367;52.508;13.284;2024-02-26T08:58:28;11.20;99.90
12604;DHT22;6367;52.508;13.284;2024-02-26T09:00:54;11.70;99.90
12604;DHT22;6367;52.508;13.284;2024-02-26T09:03:20;11.80;99.90
12604;DHT22;6367;52.508;13.284;2024-02-26T09:05:45;11.90;99.90
12604;DHT22;6367;52.508;13.284;2024-02-26T09:08:11;12.00;99.90
12604;DHT22;6367;52.508;13.284;2024-02-26T09:10:37;11.90;99.90
12604;DHT22;6367;52.508;13.284;2024-02-26T09:13:03;12.00;99.90
12604;DHT22;6367;52.508;13.284;2024-02-26T09:15:29;11.90;99.90
12604;DHT22;6367;52.508;13.284;2024-02-26T09:17:55;11.60;99.90
12604;DHT22;6367;52.508;13.284;2024-02-26T09:20:21;11.70;99.90
12604;DHT22;6367;52.508;13.284;2024-02-26T09:22:47;11.80;99.90
12604;DHT22;6367;52.508;13.284;2024-02-26T09:25:13;11.90;99.90
12604;DHT22;6367;52.508;13.284;2024-02-26T09:27:41;11.90;99.90
12604;DHT22;6367;52.508;13.284;2024-02-26T09:30:12;12.10;99.90
12604;DHT22;6367;52.508;13.284;2024-02-26T09:32:38;12.10;99.90
12604;DHT22;6367;52.508;13.284;2024-02-26T09:35:04;12.20;99.90
12604;DHT22;6367;52.508;13.284;2024-02-26T09:37:30;12.20;99.90
12604;DHT22;6367;52.508;13.284;2024-02-26T09:39:56;12.50;99.90
12604;DHT22;6367;52.508;13.284;2024-02-26T09:42:27;12.80;99.90
12604;DHT22;6367;52.508;13.284;2024-02-26T09:44:55;12.60;99.90
12604;DHT22;6367;52.508;13.284;2024-02-26T09:47:23;12.80;99.90
12604;DHT22;6367;52.508;13.284;2024-02-26T09:49:49;13.00;99.90
12604;DHT22;6367;52.508;13.284;2024-02-26T09:52:16;13.30;99.90
12604;DHT22;6367;52.508;13.284;2024-02-26T09:54:42;13.30;99.90
12604;DHT22;6367;52.508;13.284;2024-02-26T09:57:14;13.50;99.60
12604;DHT22;6367;52.508;13.284;2024-02-26T09:59:42;13.50;99.40
12604;DHT22;6367;52.508;13.284;2024-02-26T10:02:13;13.60;99.50
12604;DHT22;6367;52.508;13.284;2024-02-26T10:04:40;13.80;99.40
12604;DHT22;6367;52.508;13.284;2024-02-26T10:07:11;13.90;99.00
12604;DHT22;6367;52.508;13.284;2024-02-26T10:09:37;14.10;98.40
12604;DHT22;6367;52.508;13.284;2024-02-26T10:12:04;14.00;98.20
12604;DHT22;6367;52.508;13.284;2024-02-26T10:14:30;14.00;98.40
12604;DHT22;6367;52.508;13.284;2024-02-26T10:16:56;14.00;98.40
12604;DHT22;6367;52.508;13.284;2024-02-26T10:19:26;14.00;98.50
12604;DHT22;6367;52.508;13.284;2024-02-26T10:21:59;14.20;98.70
12604;DHT22;6367;52.508;13.284;2024-02-26T10:24:26;14.20;98.50
12604;DHT22;6367;52.508;13.284;2024-02-26T10:26:52;14.30;98.50
12604;DHT22;6367;52.508;13.284;2024-02-26T10:29:20;14.50;98.00
12604;DHT22;6367;52.508;13.284;2024-02-26T10:31:46;14.60;97.50
12604;DHT22;6367;52.508;13.284;2024-02-26T10:34:12;14.50;97.90
12604;DHT22;6367;52.508;13.284;2024-02-26T10:36:38;14.50;98.10
12604;DHT22;6367;52.508;13.284;2024-02-26T10:39:06;14.70;97.30
12604;DHT22;6367;52.508;13.284;2024-02-26T10:41:35;14.60;97.50
12604;DHT22;6367;52.508;13.284;2024-02-26T10:44:01;14.60;97.50
12604;DHT22;6367;52.508;13.284;2024-02-26T10:46:27;14.60;97.20
12604;DHT22;6367;52.508;13.284;2024-02-26T10:48:53;14.60;97.50
12604;DHT22;6367;52.508;13.284;2024-02-26T10:51:26;14.70;97.60
12604;DHT22;6367;52.508;13.284;2024-02-26T10:53:58;14.70;97.00
12604;DHT22;6367;52.508;13.284;2024-02-26T10:56:28;14.70;97.30
12604;DHT22;6367;52.508;13.284;2024-02-26T10:58:58;15.00;96.80
12604;DHT22;6367;52.508;13.284;2024-02-26T11:01:24;15.10;96.80
12604;DHT22;6367;52.508;13.284;2024-02-26T11:03:51;15.10;96.90
12604;DHT22;6367;52.508;13.284;2024-02-26T11:06:19;15.10;96.80
12604;DHT22;6367;52.508;13.284;2024-02-26T11:08:50;15.10;96.20
12604;DHT22;6367;52.508;13.284;2024-02-26T11:11:17;15.00;96.00
12604;DHT22;6367;52.508;13.284;2024-02-26T11:13:46;14.90;96.10
12604;DHT22;6367;52.508;13.284;2024-02-26T11:16:16;14.90;96.10
12604;DHT22;6367;52.508;13.284;2024-02-26T11:18:43;14.90;96.10
12604;DHT22;6367;52.508;13.284;2024-02-26T11:21:12;14.90;96.20
12604;DHT22;6367;52.508;13.284;2024-02-26T11:23:38;14.90;96.40
12604;DHT22;6367;52.508;13.284;2024-02-26T11:26:06;15.10;96.50
12604;DHT22;6367;52.508;13.284;2024-02-26T11:28:33;15.10;95.50
12604;DHT22;6367;52.508;13.284;2024-02-26T11:31:00;15.20;95.30
12604;DHT22;6367;52.508;13.284;2024-02-26T11:33:26;15.00;95.50
12604;DHT22;6367;52.508;13.284;2024-02-26T11:35:53;15.00;95.20
12604;DHT22;6367;52.508;13.284;2024-02-26T11:38:24;15.00;95.30
12604;DHT22;6367;52.508;13.284;2024-02-26T11:40:52;14.90;95.40
12604;DHT22;6367;52.508;13.284;2024-02-26T11:43:18;14.80;95.70
12604;DHT22;6367;52.508;13.284;2024-02-26T11:48:19;14.80;96.50
12604;DHT22;6367;52.508;13.284;2024-02-26T11:50:53;15.00;96.00
12604;DHT22;6367;52.508;13.284;2024-02-26T11:53:30;15.00;95.60
12604;DHT22;6367;52.508;13.284;2024-02-26T11:59:11;15.00;95.90
12604;DHT22;6367;52.508;13.284;2024-02-26T12:01:41;15.10;96.10
12604;DHT22;6367;52.508;13.284;2024-02-26T12:04:12;15.20;95.90
12604;DHT22;6367;52.508;13.284;2024-02-26T12:06:50;15.30;96.10
12604;DHT22;6367;52.508;13.284;2024-02-26T12:09:39;15.50;95.90
12604;DHT22;6367;52.508;13.284;2024-02-26T12:12:09;15.50;95.70
12604;DHT22;6367;52.508;13.284;2024-02-26T12:14:39;15.30;96.00
12604;DHT22;6367;52.508;13.284;2024-02-26T12:17:08;15.40;95.90
12604;DHT22;6367;52.508;13.284;2024-02-26T12:19:44;15.40;95.90
12604;DHT22;6367;52.508;13.284;2024-02-26T12:22:13;15.60;95.20
12604;DHT22;6367;52.508;13.284;2024-02-26T12:24:39;15.60;95.20
12604;DHT22;6367;52.508;13.284;2024-02-26T12:27:05;15.50;95.40
12604;DHT22;6367;52.508;13.284;2024-02-26T12:29:31;15.70;95.00
12604;DHT22;6367;52.508;13.284;2024-02-26T12:31:57;15.70;94.90
12604;DHT22;6367;52.508;13.284;2024-02-26T12:34:23;15.80;94.60
12604;DHT22;6367;52.508;13.284;2024-02-26T12:36:49;15.80;94.60
12604;DHT22;6367;52.508;13.284;2024-02-26T12:39:15;15.60;94.40
12604;DHT22;6367;52.508;13.284;2024-02-26T12:41:41;15.50;94.40
12604;DHT22;6367;52.508;13.284;2024-02-26T12:44:10;15.50;94.60
12604;DHT22;6367;52.508;13.284;2024-02-26T12:46:35;15.60;94.20
12604;DHT22;6367;52.508;13.284;2024-02-26T12:49:01;15.60;94.50
12604;DHT22;6367;52.508;13.284;2024-02-26T12:51:27;15.50;94.10
12604;DHT22;6367;52.508;13.284;2024-02-26T12:53:55;15.40;93.80
12604;DHT22;6367;52.508;13.284;2024-02-26T12:56:22;15.40;93.90
12604;DHT22;6367;52.508;13.284;2024-02-26T12:58:50;15.40;93.70
12604;DHT22;6367;52.508;13.284;2024-02-26T13:01:18;15.40;93.90
12604;DHT22;6367;52.508;13.284;2024-02-26T13:03:46;15.30;94.10
12604;DHT22;6367;52.508;13.284;2024-02-26T13:06:12;15.20;93.90
12604;DHT22;6367;52.508;13.284;2024-02-26T13:08:37;15.20;93.70
12604;DHT22;6367;52.508;13.284;2024-02-26T13:11:03;15.20;93.50
12604;DHT22;6367;52.508;13.284;2024-02-26T13:13:29;15.20;93.90
12604;DHT22;6367;52.508;13.284;2024-02-26T13:16:06;15.10;93.60
12604;DHT22;6367;52.508;13.284;2024-02-26T13:18:34;15.10;93.20
12604;DHT22;6367;52.508;13.284;2024-02-26T13:21:13;15.10;93.00
12604;DHT22;6367;52.508;13.284;2024-02-26T13:23:41;15.00;93.10
12604;DHT22;6367;52.508;13.284;2024-02-26T13:26:07;15.20;92.30
12604;DHT22;6367;52.508;13.284;2024-02-26T13:28:34;15.20;91.70
12604;DHT22;6367;52.508;13.284;2024-02-26T13:31:00;15.10;91.80
12604;DHT22;6367;52.508;13.284;2024-02-26T13:33:27;15.10;91.60
12604;DHT22;6367;52.508;13.284;2024-02-26T13:35:57;15.10;91.50
12604;DHT22;6367;52.508;13.284;2024-02-26T13:38:23;15.10;91.70
12604;DHT22;6367;52.508;13.284;2024-02-26T13:40:50;15.10;91.40
12604;DHT22;6367;52.508;13.284;2024-02-26T13:43:16;15.50;91.50
12604;DHT22;6367;52.508;13.284;2024-02-26T13:45:42;15.20;91.00
12604;DHT22;6367;52.508;13.284;2024-02-26T13:48:09;15.20;90.70
12604;DHT22;6367;52.508;13.284;2024-02-26T13:50:41;15.20;90.30
12604;DHT22;6367;52.508;13.284;2024-02-26T13:53:11;15.30;90.20
12604;DHT22;6367;52.508;13.284;2024-02-26T13:55:37;15.20;89.80
12604;DHT22;6367;52.508;13.284;2024-02-26T13:58:03;15.10;88.50
12604;DHT22;6367;52.508;13.284;2024-02-26T14:00:30;15.10;88.10
12604;DHT22;6367;52.508;13.284;2024-02-26T14:02:59;14.90;87.90
12604;DHT22;6367;52.508;13.284;2024-02-26T14:05:25;14.90;89.10
12604;DHT22;6367;52.508;13.284;2024-02-26T14:07:50;15.00;89.10
12604;DHT22;6367;52.508;13.284;2024-02-26T14:10:16;15.00;89.50
12604;DHT22;6367;52.508;13.284;2024-02-26T14:12:42;14.70;90.00
12604;DHT22;6367;52.508;13.284;2024-02-26T14:15:08;14.70;90.20
12604;DHT22;6367;52.508;13.284;2024-02-26T14:17:35;14.80;88.80
12604;DHT22;6367;52.508;13.284;2024-02-26T14:20:01;14.90;89.10
12604;DHT22;6367;52.508;13.284;2024-02-26T14:22:26;14.80;88.80
12604;DHT22;6367;52.508;13.284;2024-02-26T14:24:53;14.70;89.40
12604;DHT22;6367;52.508;13.284;2024-02-26T14:27:18;14.70;89.40
12604;DHT22;6367;52.508;13.284;2024-02-26T14:29:48;14.30;88.60
12604;DHT22;6367;52.508;13.284;2024-02-26T14:32:13;14.70;89.50
12604;DHT22;6367;52.508;13.284;2024-02-26T14:34:39;14.70;89.80
12604;DHT22;6367;52.508;13.284;2024-02-26T14:37:05;14.70;90.20
12604;DHT22;6367;52.508;13.284;2024-02-26T14:39:33;14.80;90.30
12604;DHT22;6367;52.508;13.284;2024-02-26T14:42:00;14.70;90.10
12604;DHT22;6367;52.508;13.284;2024-02-26T14:44:26;14.60;90.40
12604;DHT22;6367;52.508;13.284;2024-02-26T14:46:51;14.60;90.80
12604;DHT22;6367;52.508;13.284;2024-02-26T14:49:17;14.60;90.80
12604;DHT22;6367;52.508;13.284;2024-02-26T14:51:43;14.50;91.10
12604;DHT22;6367;52.508;13.284;2024-02-26T14:54:12;14.60;91.10
12604;DHT22;6367;52.508;13.284;2024-02-26T14:56:38;14.60;91.20
12604;DHT22;6367;52.508;13.284;2024-02-26T14:59:04;14.60;91.30
12604;DHT22;6367;52.508;13.284;2024-02-26T15:01:30;14.50;91.50
12604;DHT22;6367;52.508;13.284;2024-02-26T15:03:55;14.40;91.90
12604;DHT22;6367;52.508;13.284;2024-02-26T15:06:22;14.30;92.20
12604;DHT22;6367;52.508;13.284;2024-02-26T15:08:48;14.40;92.20
12604;DHT22;6367;52.508;13.284;2024-02-26T15:11:14;14.30;92.40
12604;DHT22;6367;52.508;13.284;2024-02-26T15:13:39;14.30;92.40
12604;DHT22;6367;52.508;13.284;2024-02-26T15:16:05;14.30;92.40
12604;DHT22;6367;52.508;13.284;2024-02-26T15:18:31;14.20;92.70
12604;DHT22;6367;52.508;13.284;2024-02-26T15:20:57;14.10;92.90
12604;DHT22;6367;52.508;13.284;2024-02-26T15:23:23;14.00;93.20
12604;DHT22;6367;52.508;13.284;2024-02-26T15:25:48;13.90;93.40
12604;DHT22;6367;52.508;13.284;2024-02-26T15:28:14;13.90;93.60
12604;DHT22;6367;52.508;13.284;2024-02-26T15:30:40;14.00;93.70
12604;DHT22;6367;52.508;13.284;2024-02-26T15:33:06;13.90;93.70
12604;DHT22;6367;52.508;13.284;2024-02-26T15:35:32;14.10;94.00
12604;DHT22;6367;52.508;13.284;2024-02-26T15:37:57;14.20;94.00
12604;DHT22;6367;52.508;13.284;2024-02-26T15:40:24;14.20;94.10